Time;durP1;ratioP1;P1;durP2;ratioP2;P2;SDS_P1;SDS_P2;PMS_P1;PMS_P2;Temp;Humidity;BMP_temperature;BMP_pressure;BME280_temperature;BME280_humidity;BME280_pressure;Samples;Min_cycle;Max_cycle;Signal;HPM_P1;HPM_P2
2022/07/17 00:02:16;;;;;;;1999.90;999.90;;;22.60;74.60;;;;;;5053363;28;20029;-74
2022/07/17 00:04:42;;;;;;;1999.90;999.90;;;22.60;74.50;;;;;;5051559;28;20029;-73
2022/07/17 00:07:08;;;;;;;1999.90;999.90;;;22.50;74.50;;;;;;5054170;28;20048;-74
2022/07/17 00:09:34;;;;;;;1999.90;999.90;;;22.50;74.80;;;;;;5053847;28;20406;-74
2022/07/17 00:11:59;;;;;;;1999.90;999.90;;;22.50;74.80;;;;;;5053877;28;20009;-73
2022/07/17 00:14:25;;;;;;;1999.90;999.90;;;22.40;75.00;;;;;;5053907;28;20537;-74
2022/07/17 00:16:51;;;;;;;1999.90;999.90;;;22.30;75.00;;;;;;5035976;28;20072;-74
2022/07/17 00:19:17;;;;;;;1999.90;999.90;;;22.30;75.30;;;;;;5053876;28;20028;-74
2022/07/17 00:21:42;;;;;;;1999.90;999.90;;;22.30;75.30;;;;;;5053641;28;20083;-74
2022/07/17 00:24:08;;;;;;;1999.90;999.90;;;22.20;75.50;;;;;;5052805;28;20032;-74
2022/07/17 00:26:34;;;;;;;1999.90;999.90;;;22.20;75.50;;;;;;5053048;28;20020;-74
2022/07/17 00:29:01;;;;;;;1999.90;999.90;;;22.20;75.40;;;;;;5052084;28;20021;-73
2022/07/17 00:31:27;;;;;;;1999.90;999.90;;;22.20;75.30;;;;;;5052774;28;20052;-73
2022/07/17 00:33:52;;;;;;;1999.90;999.90;;;22.20;75.30;;;;;;5051512;28;20033;-73
2022/07/17 00:36:18;;;;;;;1999.90;999.90;;;22.30;75.30;;;;;;5053673;28;20036;-74
2022/07/17 00:38:43;;;;;;;1999.90;999.90;;;22.30;75.30;;;;;;5046193;28;20033;-73
2022/07/17 00:41:09;;;;;;;1999.90;999.90;;;22.30;75.30;;;;;;5053351;28;20411;-74
2022/07/17 00:43:35;;;;;;;1999.90;999.90;;;22.20;75.20;;;;;;5053297;28;20041;-74
2022/07/17 00:46:03;;;;;;;1999.90;999.90;;;22.20;75.40;;;;;;5053430;28;20025;-74
2022/07/17 00:48:29;;;;;;;1999.90;999.90;;;22.10;75.60;;;;;;5053195;28;20024;-73
2022/07/17 00:50:55;;;;;;;1999.90;999.90;;;22.10;75.80;;;;;;5062051;28;20028;-74
2022/07/17 00:53:21;;;;;;;1999.90;999.90;;;22.00;75.60;;;;;;5057726;28;20025;-74
2022/07/17 00:55:48;;;;;;;1999.90;999.90;;;21.90;76.00;;;;;;5053143;28;20021;-74
2022/07/17 00:58:25;;;;;;;1999.90;999.90;;;21.90;76.10;;;;;;5053141;28;20510;-74
2022/07/17 01:00:53;;;;;;;1999.90;999.90;;;21.90;76.20;;;;;;5052967;28;20482;-74
2022/07/17 01:03:20;;;;;;;1999.90;999.90;;;21.80;76.30;;;;;;5051181;28;20473;-73
2022/07/17 01:05:46;;;;;;;1999.90;999.90;;;21.80;76.80;;;;;;5051403;28;20017;-73
2022/07/17 01:08:12;;;;;;;1999.90;999.90;;;21.70;76.80;;;;;;5052987;28;20028;-74
2022/07/17 01:10:38;;;;;;;1999.90;999.90;;;21.60;77.00;;;;;;5052728;28;20017;-74
2022/07/17 01:13:05;;;;;;;1999.90;999.90;;;21.60;76.90;;;;;;5052647;28;20551;-73
2022/07/17 01:15:32;;;;;;;1999.90;999.90;;;21.60;77.10;;;;;;5052382;28;20072;-74
2022/07/17 01:18:03;;;;;;;1999.90;999.90;;;21.60;77.00;;;;;;5051885;28;20053;-74
2022/07/17 01:20:29;;;;;;;1999.90;999.90;;;21.50;77.00;;;;;;5052953;28;20033;-73
2022/07/17 01:22:55;;;;;;;1999.90;999.90;;;21.50;77.60;;;;;;5052690;28;20041;-73
2022/07/17 01:25:22;;;;;;;1999.90;999.90;;;21.50;76.90;;;;;;5052689;28;20452;-73
2022/07/17 01:27:48;;;;;;;1999.90;999.90;;;21.60;76.90;;;;;;5052413;28;20397;-73
2022/07/17 01:30:14;;;;;;;1999.90;999.90;;;21.60;76.90;;;;;;5051679;28;20048;-73
2022/07/17 01:32:41;;;;;;;1999.90;999.90;;;21.60;76.70;;;;;;5050586;28;20040;-73
2022/07/17 01:35:09;;;;;;;1999.90;999.90;;;21.60;76.70;;;;;;5041320;28;20069;-73
2022/07/17 01:37:35;;;;;;;1999.90;999.90;;;21.60;76.40;;;;;;5051234;28;20039;-73
2022/07/17 01:40:00;;;;;;;1999.90;999.90;;;21.60;76.50;;;;;;5052518;28;20115;-73
2022/07/17 01:42:27;;;;;;;1999.90;999.90;;;21.60;76.40;;;;;;5048507;28;20399;-74
2022/07/17 01:44:55;;;;;;;1999.90;999.90;;;21.60;76.40;;;;;;5056724;28;20021;-74
2022/07/17 01:47:21;;;;;;;1999.90;999.90;;;21.60;76.40;;;;;;5056461;28;20033;-74
2022/07/17 01:49:48;;;;;;;1999.90;999.90;;;21.60;76.40;;;;;;5056779;28;20075;-74
2022/07/17 01:52:14;;;;;;;1999.90;999.90;;;21.60;76.50;;;;;;5070109;28;20025;-74
2022/07/17 01:54:41;;;;;;;1999.90;999.90;;;21.60;76.20;;;;;;5056197;28;20531;-73
2022/07/17 01:57:07;;;;;;;1999.90;999.90;;;21.70;76.10;;;;;;5056297;28;20050;-73
2022/07/17 01:59:33;;;;;;;1999.90;999.90;;;21.70;76.10;;;;;;5056821;28;20051;-74
2022/07/17 02:01:58;;;;;;;1999.90;999.90;;;21.70;75.90;;;;;;5055900;28;20028;-74
2022/07/17 02:04:24;;;;;;;1999.90;999.90;;;21.80;75.80;;;;;;5053742;28;20032;-74
2022/07/17 02:06:50;;;;;;;1999.90;999.90;;;21.80;75.60;;;;;;5055763;28;20025;-74
2022/07/17 02:09:15;;;;;;;1999.90;999.90;;;21.90;75.60;;;;;;5055949;28;20028;-74
2022/07/17 02:11:41;;;;;;;1999.90;999.90;;;21.90;75.30;;;;;;5056094;28;20033;-74
2022/07/17 02:14:07;;;;;;;1999.90;999.90;;;21.90;75.40;;;;;;5056279;28;20484;-73
2022/07/17 02:16:32;;;;;;;1999.90;999.90;;;22.00;75.40;;;;;;5055845;28;20029;-74
2022/07/17 02:18:58;;;;;;;1999.90;999.90;;;21.90;75.30;;;;;;5056001;28;20403;-74
2022/07/17 02:21:23;;;;;;;1999.90;999.90;;;21.90;75.30;;;;;;5055885;28;20029;-74
2022/07/17 02:23:49;;;;;;;1999.90;999.90;;;21.90;75.30;;;;;;5055680;28;20025;-74
2022/07/17 02:26:15;;;;;;;1999.90;999.90;;;21.90;75.50;;;;;;5056049;28;20033;-74
2022/07/17 02:28:40;;;;;;;1999.90;999.90;;;21.90;75.60;;;;;;5055912;28;20031;-74
2022/07/17 02:31:06;;;;;;;1999.90;999.90;;;21.90;75.50;;;;;;5054926;28;20120;-74
2022/07/17 02:33:32;;;;;;;1999.90;999.90;;;21.90;75.50;;;;;;5054028;28;20079;-74
2022/07/17 02:35:57;;;;;;;1999.90;999.90;;;21.90;75.30;;;;;;5043440;28;20467;-74
2022/07/17 02:38:23;;;;;;;1999.90;999.90;;;21.90;75.50;;;;;;5055690;28;20450;-74
2022/07/17 02:40:49;;;;;;;1999.90;999.90;;;21.90;75.30;;;;;;5055095;28;20530;-74
2022/07/17 02:43:15;;;;;;;1999.90;999.90;;;21.90;75.30;;;;;;5048215;28;20025;-74
2022/07/17 02:45:40;;;;;;;1999.90;999.90;;;21.90;75.20;;;;;;5055853;28;20403;-74
2022/07/17 02:48:06;;;;;;;1999.90;999.90;;;21.90;75.40;;;;;;5055617;28;20021;-74
2022/07/17 02:50:32;;;;;;;1999.90;999.90;;;21.80;75.40;;;;;;5060979;28;20025;-74
2022/07/17 02:52:57;;;;;;;1999.90;999.90;;;21.90;75.30;;;;;;5062008;28;20021;-74
2022/07/17 02:55:24;;;;;;;1999.90;999.90;;;21.90;75.30;;;;;;5055325;28;20068;-74
2022/07/17 02:57:49;;;;;;;1999.90;999.90;;;21.80;75.40;;;;;;5055496;28;20029;-74
2022/07/17 03:00:16;;;;;;;1999.90;999.90;;;21.80;75.50;;;;;;5055373;28;20142;-73
2022/07/17 03:02:43;;;;;;;1999.90;999.90;;;21.80;75.40;;;;;;5053370;28;20032;-74
2022/07/17 03:05:10;;;;;;;1999.90;999.90;;;21.90;75.50;;;;;;5053742;28;20029;-74
2022/07/17 03:07:37;;;;;;;1999.90;999.90;;;21.80;75.20;;;;;;5055086;28;20029;-74
2022/07/17 03:10:03;;;;;;;1999.90;999.90;;;21.80;75.50;;;;;;5054968;28;20025;-74
2022/07/17 03:12:29;;;;;;;1999.90;999.90;;;21.80;75.40;;;;;;5055035;28;20120;-74
2022/07/17 03:14:55;;;;;;;1999.90;999.90;;;21.80;75.40;;;;;;5055115;28;20467;-74
2022/07/17 03:17:21;;;;;;;1999.90;999.90;;;21.70;75.60;;;;;;5054966;28;20021;-74
2022/07/17 03:19:47;;;;;;;1999.90;999.90;;;21.70;75.70;;;;;;5055065;28;20483;-74
2022/07/17 03:22:12;;;;;;;1999.90;999.90;;;21.60;76.10;;;;;;5054719;28;20044;-74
2022/07/17 03:24:38;;;;;;;1999.90;999.90;;;21.50;76.10;;;;;;5054634;28;20483;-74
2022/07/17 03:27:04;;;;;;;1999.90;999.90;;;21.50;76.40;;;;;;5054991;28;20066;-74
2022/07/17 03:29:29;;;;;;;1999.90;999.90;;;21.40;76.60;;;;;;5054687;28;20456;-74
2022/07/17 03:31:55;;;;;;;1999.90;999.90;;;21.40;76.80;;;;;;5054606;28;20029;-74
2022/07/17 03:34:21;;;;;;;1999.90;999.90;;;21.30;76.90;;;;;;5047942;28;20056;-73
2022/07/17 03:36:47;;;;;;;1999.90;999.90;;;21.30;76.90;;;;;;5047157;28;20036;-73
2022/07/17 03:39:14;;;;;;;1999.90;999.90;;;21.20;77.00;;;;;;5054304;28;20032;-74
2022/07/17 03:41:39;;;;;;;1999.90;999.90;;;21.20;77.20;;;;;;5047381;28;20021;-73
2022/07/17 03:44:05;;;;;;;1999.90;999.90;;;21.20;77.10;;;;;;5053517;28;20082;-74
2022/07/17 03:46:31;;;;;;;1999.90;999.90;;;21.20;77.10;;;;;;5054387;28;20014;-74
2022/07/17 03:48:56;;;;;;;1999.90;999.90;;;21.20;77.30;;;;;;5054345;28;20029;-73
2022/07/17 03:51:22;;;;;;;1999.90;999.90;;;21.20;77.30;;;;;;5066809;28;20025;-73
2022/07/17 03:53:48;;;;;;;1999.90;999.90;;;21.20;77.20;;;;;;5055079;28;20029;-74
2022/07/17 03:56:14;;;;;;;1999.90;999.90;;;21.20;77.20;;;;;;5054556;28;20545;-74
2022/07/17 03:58:39;;;;;;;1999.90;999.90;;;21.30;77.30;;;;;;5054121;28;20029;-73
2022/07/17 04:01:05;;;;;;;1999.90;999.90;;;21.30;77.10;;;;;;5054272;28;20120;-74
2022/07/17 04:03:31;;;;;;;1999.90;999.90;;;21.30;77.00;;;;;;5052314;28;20025;-74
2022/07/17 04:05:56;;;;;;;1999.90;999.90;;;21.40;77.10;;;;;;5054040;28;20399;-74
2022/07/17 04:08:22;;;;;;;1999.90;999.90;;;21.40;77.00;;;;;;5054037;28;20025;-73
2022/07/17 04:10:47;;;;;;;1999.90;999.90;;;21.40;76.90;;;;;;5045572;28;20021;-73
2022/07/17 04:13:13;;;;;;;1999.90;999.90;;;21.40;76.90;;;;;;5052143;28;20040;-73
2022/07/17 04:15:59;;;;;;;1999.90;999.90;;;21.40;76.70;;;;;;5053417;28;20448;-74
2022/07/17 04:18:33;;;;;;;1999.90;999.90;;;21.40;76.70;;;;;;5053884;28;20051;-73
2022/07/17 04:21:03;;;;;;;1999.90;999.90;;;21.40;76.90;;;;;;5053567;28;20029;-74
2022/07/17 04:23:29;;;;;;;1999.90;999.90;;;21.40;77.00;;;;;;5053793;28;20070;-73
2022/07/17 04:25:55;;;;;;;1999.90;999.90;;;21.40;76.80;;;;;;5053651;28;20025;-73
2022/07/17 04:28:21;;;;;;;1999.90;999.90;;;21.40;77.00;;;;;;5053588;28;20419;-74
2022/07/17 04:30:47;;;;;;;1999.90;999.90;;;21.40;77.10;;;;;;5053444;28;20045;-74
2022/07/17 04:33:13;;;;;;;1999.90;999.90;;;21.40;77.20;;;;;;5050760;28;20408;-73
2022/07/17 04:35:39;;;;;;;1999.90;999.90;;;21.40;77.10;;;;;;5053395;28;20021;-73
2022/07/17 04:38:06;;;;;;;1999.90;999.90;;;21.30;77.30;;;;;;5050060;28;20515;-74
2022/07/17 04:40:33;;;;;;;1999.90;999.90;;;21.30;77.30;;;;;;5049264;28;20388;-73
2022/07/17 04:42:58;;;;;;;1999.90;999.90;;;21.30;77.60;;;;;;5053375;28;20159;-74
2022/07/17 04:45:24;;;;;;;1999.90;999.90;;;21.20;77.60;;;;;;5053233;28;20532;-74
2022/07/17 04:47:50;;;;;;;1999.90;999.90;;;21.20;77.90;;;;;;5053282;28;20021;-74
2022/07/17 04:50:16;;;;;;;1999.90;999.90;;;21.10;77.80;;;;;;5056676;28;20090;-74
2022/07/17 04:52:41;;;;;;;1999.90;999.90;;;21.10;78.10;;;;;;5063337;28;20510;-73
2022/07/17 04:55:07;;;;;;;1999.90;999.90;;;21.00;78.30;;;;;;5053013;28;20037;-73
2022/07/17 04:57:33;;;;;;;1999.90;999.90;;;21.10;78.40;;;;;;5053394;28;20013;-73
2022/07/17 04:59:59;;;;;;;1999.90;999.90;;;21.00;78.50;;;;;;5052900;28;20056;-74
2022/07/17 05:02:25;;;;;;;1999.90;999.90;;;21.00;78.50;;;;;;5051952;28;20047;-73
2022/07/17 05:04:50;;;;;;;1999.90;999.90;;;21.00;78.70;;;;;;5052049;28;20087;-73
2022/07/17 05:07:17;;;;;;;1999.90;999.90;;;21.00;78.60;;;;;;5053208;28;20025;-73
2022/07/17 05:09:42;;;;;;;1999.90;999.90;;;21.00;78.60;;;;;;5052756;28;20025;-73
2022/07/17 05:12:08;;;;;;;1999.90;999.90;;;21.00;78.50;;;;;;5044998;28;20019;-73
2022/07/17 05:14:34;;;;;;;1999.90;999.90;;;21.00;78.60;;;;;;5052648;28;20025;-73
2022/07/17 05:17:00;;;;;;;1999.90;999.90;;;21.10;78.70;;;;;;5052447;28;20083;-73
2022/07/17 05:19:25;;;;;;;1999.90;999.90;;;21.10;78.60;;;;;;5052792;28;20029;-74
2022/07/17 05:21:51;;;;;;;1999.90;999.90;;;21.10;79.10;;;;;;5052795;28;20361;-74
2022/07/17 05:24:17;;;;;;;1999.90;999.90;;;21.10;78.80;;;;;;5052462;28;20456;-74
2022/07/17 05:26:42;;;;;;;1999.90;999.90;;;21.20;78.70;;;;;;5053037;28;20020;-74
2022/07/17 05:29:08;;;;;;;1999.90;999.90;;;21.20;78.70;;;;;;5052551;28;20119;-74
2022/07/17 05:31:34;;;;;;;1999.90;999.90;;;21.30;78.70;;;;;;5052335;28;20045;-73
2022/07/17 05:33:59;;;;;;;1999.90;999.90;;;21.30;78.50;;;;;;5050371;28;20029;-74
2022/07/17 05:36:25;;;;;;;1999.90;999.90;;;21.30;78.40;;;;;;5052631;28;20484;-74
2022/07/17 05:38:51;;;;;;;1999.90;999.90;;;21.40;78.60;;;;;;5052582;28;20087;-73
2022/07/17 05:41:17;;;;;;;1999.90;999.90;;;21.40;78.40;;;;;;5048476;28;20063;-74
2022/07/17 05:43:42;;;;;;;1999.90;999.90;;;21.50;78.50;;;;;;5047687;28;20068;-74
2022/07/17 05:46:08;;;;;;;1999.90;999.90;;;21.50;78.70;;;;;;5052482;28;20455;-74
2022/07/17 05:48:34;;;;;;;1999.90;999.90;;;21.60;78.20;;;;;;5052384;28;20395;-74
2022/07/17 05:50:59;;;;;;;1999.90;999.90;;;21.70;77.80;;;;;;5055596;28;20039;-73
2022/07/17 05:53:25;;;;;;;1999.90;999.90;;;21.90;77.90;;;;;;5056610;28;20120;-74
2022/07/17 05:55:51;;;;;;;1999.90;999.90;;;22.00;77.60;;;;;;5052377;28;20075;-74
2022/07/17 05:58:17;;;;;;;1999.90;999.90;;;22.00;77.90;;;;;;5052430;28;20021;-74
2022/07/17 06:00:43;;;;;;;1999.90;999.90;;;22.20;77.30;;;;;;5052098;28;20488;-73
2022/07/17 06:03:09;;;;;;;1999.90;999.90;;;22.30;77.10;;;;;;5050790;28;20488;-74
2022/07/17 06:05:35;;;;;;;1999.90;999.90;;;22.50;76.60;;;;;;5035572;28;20036;-74
2022/07/17 06:08:01;;;;;;;1999.90;999.90;;;22.60;76.70;;;;;;5052603;28;20365;-74
2022/07/17 06:10:27;;;;;;;1999.90;999.90;;;22.70;76.40;;;;;;5046797;28;20017;-74
2022/07/17 06:12:53;;;;;;;1999.90;999.90;;;22.80;76.00;;;;;;5048195;28;20226;-74
2022/07/17 06:15:20;;;;;;;1999.90;999.90;;;22.90;75.80;;;;;;5052271;28;20053;-74
2022/07/17 06:17:46;;;;;;;1999.90;999.90;;;23.10;75.60;;;;;;5052021;28;20083;-74
2022/07/17 06:20:13;;;;;;;1999.90;999.90;;;23.10;75.10;;;;;;5050974;28;20025;-74
2022/07/17 06:22:39;;;;;;;1999.90;999.90;;;23.20;75.10;;;;;;5052132;28;20037;-74
2022/07/17 06:25:05;;;;;;;1999.90;999.90;;;23.30;75.30;;;;;;5033995;28;20455;-73
2022/07/17 06:27:31;;;;;;;1999.90;999.90;;;23.40;74.70;;;;;;5054911;28;20112;-73
2022/07/17 06:29:56;;;;;;;1999.90;999.90;;;23.40;74.80;;;;;;5055748;28;20033;-74
2022/07/17 06:32:22;;;;;;;1999.90;999.90;;;23.50;74.40;;;;;;5054951;28;20057;-73
2022/07/17 06:34:47;;;;;;;1999.90;999.90;;;23.50;74.50;;;;;;5054121;28;20060;-74
2022/07/17 06:37:13;;;;;;;1999.90;999.90;;;23.60;74.30;;;;;;5055878;28;20488;-74
2022/07/17 06:39:39;;;;;;;1999.90;999.90;;;23.60;74.10;;;;;;5055673;28;20075;-74
2022/07/17 06:42:04;;;;;;;1999.90;999.90;;;23.70;74.40;;;;;;5046490;28;20037;-74
2022/07/17 06:44:30;;;;;;;1999.90;999.90;;;23.70;74.40;;;;;;5055603;28;20103;-74
2022/07/17 06:46:56;;;;;;;1999.90;999.90;;;23.70;74.10;;;;;;5055641;28;20032;-73
2022/07/17 06:49:22;;;;;;;1999.90;999.90;;;23.70;74.10;;;;;;5053339;28;20032;-74
2022/07/17 06:51:47;;;;;;;1999.90;999.90;;;23.80;74.10;;;;;;5065086;28;20021;-74
2022/07/17 06:54:14;;;;;;;1999.90;999.90;;;23.90;74.00;;;;;;5055380;28;20032;-74
2022/07/17 06:56:41;;;;;;;1999.90;999.90;;;23.90;74.00;;;;;;5055465;28;20021;-74
2022/07/17 06:59:09;;;;;;;1999.90;999.90;;;24.00;73.60;;;;;;5055483;28;20110;-74
2022/07/17 07:01:36;;;;;;;1999.90;999.90;;;24.10;73.80;;;;;;5055267;28;20029;-74
2022/07/17 07:04:03;;;;;;;1999.90;999.90;;;24.30;73.70;;;;;;5053806;28;20396;-74
2022/07/17 07:06:29;;;;;;;1999.90;999.90;;;24.40;73.40;;;;;;5054401;28;20021;-75
2022/07/17 07:08:55;;;;;;;1999.90;999.90;;;24.50;73.40;;;;;;5055173;28;20017;-75
2022/07/17 07:11:21;;;;;;;1999.90;999.90;;;24.60;73.00;;;;;;5054967;28;20028;-75
2022/07/17 07:13:47;;;;;;;1999.90;999.90;;;24.80;73.10;;;;;;5055298;28;20384;-75
2022/07/17 07:16:13;;;;;;;1999.90;999.90;;;24.90;72.50;;;;;;5054159;28;20503;-74
2022/07/17 07:18:38;;;;;;;1999.90;999.90;;;25.00;72.50;;;;;;5036861;28;20032;-74
2022/07/17 07:21:04;;;;;;;1999.90;999.90;;;25.20;72.20;;;;;;5055205;28;20029;-74
2022/07/17 07:23:30;;;;;;;1999.90;999.90;;;25.40;72.40;;;;;;5054937;28;20025;-75
2022/07/17 07:25:55;;;;;;;1999.90;999.90;;;25.50;71.50;;;;;;5054684;28;20017;-75
2022/07/17 07:28:21;;;;;;;1999.90;999.90;;;25.70;71.20;;;;;;5054787;28;20021;-74
2022/07/17 07:30:47;;;;;;;1999.90;999.90;;;25.80;71.10;;;;;;5054635;28;20400;-74
2022/07/17 07:33:13;;;;;;;1999.90;999.90;;;26.00;70.50;;;;;;5052449;28;20065;-74
2022/07/17 07:35:39;;;;;;;1999.90;999.90;;;26.10;70.00;;;;;;5042314;28;20036;-74
2022/07/17 07:38:04;;;;;;;1999.90;999.90;;;26.30;69.80;;;;;;5054332;28;20040;-75
2022/07/17 07:40:31;;;;;;;1999.90;999.90;;;26.50;69.40;;;;;;5054358;28;20032;-74
2022/07/17 07:42:57;;;;;;;1999.90;999.90;;;27.00;68.60;;;;;;5054642;28;20025;-75
2022/07/17 07:45:23;;;;;;;1999.90;999.90;;;28.30;66.70;;;;;;5054465;28;20021;-75
2022/07/17 07:47:50;;;;;;;1999.90;999.90;;;29.70;64.90;;;;;;5054334;28;20488;-75
2022/07/17 07:50:17;;;;;;;1999.90;999.90;;;30.50;63.80;;;;;;5051724;28;20461;-75
2022/07/17 07:52:43;;;;;;;1999.90;999.90;;;31.20;63.00;;;;;;5046524;28;20408;-75
2022/07/17 07:55:10;;;;;;;1999.90;999.90;;;31.60;62.30;;;;;;5054267;28;20029;-75
2022/07/17 07:57:37;;;;;;;1999.90;999.90;;;32.20;61.80;;;;;;5054359;28;20052;-75
2022/07/17 08:00:07;;;;;;;1999.90;999.90;;;32.50;61.20;;;;;;5054187;28;20033;-75
2022/07/17 08:02:33;;;;;;;1999.90;999.90;;;32.80;60.80;;;;;;5052738;28;20017;-72
2022/07/17 08:04:59;;;;;;;1999.90;999.90;;;33.20;60.20;;;;;;5053568;28;20029;-73
2022/07/17 08:07:28;;;;;;;1999.90;999.90;;;33.50;59.80;;;;;;5054051;28;20139;-72
2022/07/17 08:09:55;;;;;;;1999.90;999.90;;;33.90;59.60;;;;;;5052984;28;20495;-73
2022/07/17 08:12:22;;;;;;;1999.90;999.90;;;34.20;59.30;;;;;;5045302;28;20013;-72
2022/07/17 08:14:47;;;;;;;1999.90;999.90;;;35.00;59.10;;;;;;5054081;28;20107;-73
2022/07/17 08:17:13;;;;;;;1999.90;999.90;;;34.70;58.70;;;;;;5053859;28;20104;-73
2022/07/17 08:19:38;;;;;;;1999.90;999.90;;;35.20;58.40;;;;;;5053875;28;20087;-73
2022/07/17 08:22:04;;;;;;;1999.90;999.90;;;34.20;58.90;;;;;;5053850;28;20399;-72
2022/07/17 08:24:30;;;;;;;1999.90;999.90;;;32.90;60.00;;;;;;5053477;28;20029;-72
2022/07/17 08:26:56;;;;;;;1999.90;999.90;;;31.80;60.90;;;;;;5053441;28;20053;-72
2022/07/17 08:29:22;;;;;;;1999.90;999.90;;;32.40;60.60;;;;;;5053762;28;20025;-73
2022/07/17 08:31:47;;;;;;;1999.90;999.90;;;33.60;59.30;;;;;;5053670;28;20045;-72
2022/07/17 08:34:14;;;;;;;1999.90;999.90;;;34.50;59.10;;;;;;5050960;28;20492;-73
2022/07/17 08:36:40;;;;;;;1999.90;999.90;;;34.50;58.80;;;;;;5053545;28;20031;-73
2022/07/17 08:39:06;;;;;;;1999.90;999.90;;;34.90;58.30;;;;;;5045385;28;20029;-73
2022/07/17 08:41:36;;;;;;;1999.90;999.90;;;35.70;57.80;;;;;;5047106;28;20480;-73
2022/07/17 08:44:03;;;;;;;1999.90;999.90;;;35.90;57.80;;;;;;5051709;28;20033;-73
2022/07/17 08:46:30;;;;;;;1999.90;999.90;;;36.70;57.10;;;;;;5053315;28;20021;-73
2022/07/17 08:48:59;;;;;;;1999.90;999.90;;;36.90;57.10;;;;;;5053394;28;20392;-72
2022/07/17 08:51:26;;;;;;;1999.90;999.90;;;37.10;57.10;;;;;;5058971;28;20102;-73
2022/07/17 08:53:52;;;;;;;1999.90;999.90;;;37.30;56.40;;;;;;5053169;28;20032;-73
2022/07/17 08:56:18;;;;;;;1999.90;999.90;;;37.60;56.10;;;;;;5053411;28;20025;-73
2022/07/17 08:58:44;;;;;;;1999.90;999.90;;;37.50;56.00;;;;;;5053263;28;20025;-73
2022/07/17 09:01:10;;;;;;;1999.90;999.90;;;37.70;56.10;;;;;;5052996;28;20025;-73
2022/07/17 09:03:36;;;;;;;1999.90;999.90;;;37.70;55.80;;;;;;5051166;28;20021;-73
2022/07/17 09:06:02;;;;;;;1999.90;999.90;;;37.80;55.50;;;;;;5053108;28;20091;-73
2022/07/17 09:08:32;;;;;;;1999.90;999.90;;;38.20;55.80;;;;;;5053086;28;20040;-72
2022/07/17 09:10:58;;;;;;;1999.90;999.90;;;38.60;55.60;;;;;;5042859;28;20029;-72
2022/07/17 09:13:30;;;;;;;1999.90;999.90;;;38.70;55.40;;;;;;5052832;28;20017;-74
2022/07/17 09:15:59;;;;;;;1999.90;999.90;;;38.60;54.80;;;;;;5053121;28;20040;-73
2022/07/17 09:18:28;;;;;;;1999.90;999.90;;;38.50;54.90;;;;;;5052582;28;20495;-73
2022/07/17 09:20:58;;;;;;;1999.90;999.90;;;38.40;54.90;;;;;;5052994;28;20491;-73
2022/07/17 09:23:26;;;;;;;1999.90;999.90;;;38.30;55.00;;;;;;5052618;28;20029;-73
2022/07/17 09:25:55;;;;;;;1999.90;999.90;;;38.30;55.00;;;;;;5052376;28;20029;-73
2022/07/17 09:28:21;;;;;;;1999.90;999.90;;;38.70;55.10;;;;;;5052597;28;20017;-74
2022/07/17 09:30:50;;;;;;;1999.90;999.90;;;38.30;54.50;;;;;;5052325;28;20123;-73
2022/07/17 09:33:26;;;;;;;1999.90;999.90;;;38.50;54.50;;;;;;5050938;28;20032;-74
2022/07/17 09:36:07;;;;;;;1999.90;999.90;;;38.60;54.00;;;;;;5038904;28;20056;-73
2022/07/17 09:38:36;;;;;;;1999.90;999.90;;;39.00;54.60;;;;;;5034286;28;20415;-73
2022/07/17 09:41:22;;;;;;;1999.90;999.90;;;39.50;54.20;;;;;;5039154;28;20346;-74
2022/07/17 09:43:50;;;;;;;1999.90;999.90;;;39.40;53.50;;;;;;5052517;28;20396;-73
2022/07/17 09:46:26;;;;;;;1999.90;999.90;;;39.10;54.10;;;;;;5052581;28;20033;-73
2022/07/17 09:48:56;;;;;;;1999.90;999.90;;;39.00;54.00;;;;;;5052327;28;20025;-73
2022/07/17 09:51:26;;;;;;;1999.90;999.90;;;39.30;54.00;;;;;;5058698;28;20028;-74
2022/07/17 09:54:03;;;;;;;1999.90;999.90;;;39.60;53.60;;;;;;5052620;28;20017;-74
2022/07/17 09:56:31;;;;;;;1999.90;999.90;;;39.40;53.30;;;;;;5052631;28;20126;-74
2022/07/17 09:59:11;;;;;;;1999.90;999.90;;;39.10;53.30;;;;;;5052541;28;20379;-74
2022/07/17 10:01:39;;;;;;;1999.90;999.90;;;38.80;53.30;;;;;;5053528;28;20017;-73
2022/07/17 10:04:05;;;;;;;1999.90;999.90;;;39.10;53.00;;;;;;5054797;28;20025;-73
2022/07/17 10:06:31;;;;;;;1999.90;999.90;;;39.00;52.90;;;;;;5056475;28;20028;-74
2022/07/17 10:08:57;;;;;;;1999.90;999.90;;;39.10;52.80;;;;;;5056081;28;20104;-74
2022/07/17 10:11:25;;;;;;;1999.90;999.90;;;38.80;52.80;;;;;;5046820;28;20025;-73
2022/07/17 10:13:53;;;;;;;1999.90;999.90;;;38.50;53.30;;;;;;5056077;28;20031;-73
2022/07/17 10:16:30;;;;;;;1999.90;999.90;;;38.40;53.40;;;;;;5056270;28;20021;-72
2022/07/17 10:18:58;;;;;;;1999.90;999.90;;;38.20;53.90;;;;;;5056155;28;20104;-74
2022/07/17 10:21:26;;;;;;;1999.90;999.90;;;38.60;53.90;;;;;;5055989;28;20533;-73
2022/07/17 10:23:54;;;;;;;1999.90;999.90;;;39.20;53.20;;;;;;5055899;28;20021;-73
2022/07/17 10:26:43;;;;;;;1999.90;999.90;;;39.50;52.80;;;;;;5056076;28;20056;-72
2022/07/17 10:29:28;;;;;;;1999.90;999.90;;;39.70;52.40;;;;;;5055900;28;20434;-74
2022/07/17 10:31:54;;;;;;;1999.90;999.90;;;39.50;52.70;;;;;;5055807;28;20041;-74
2022/07/17 10:34:38;;;;;;;1999.90;999.90;;;39.70;53.30;;;;;;5049231;28;20037;-73
2022/07/17 10:37:16;;;;;;;1999.90;999.90;;;40.20;52.90;;;;;;5050306;28;20111;-73
2022/07/17 10:39:55;;;;;;;1999.90;999.90;;;40.10;53.10;;;;;;5055664;28;20032;-74
2022/07/17 10:42:45;;;;;;;1999.90;999.90;;;39.80;52.40;;;;;;5047293;28;20053;-74
2022/07/17 10:45:19;;;;;;;1999.90;999.90;;;39.80;52.80;;;;;;5050499;28;20400;-74
2022/07/17 10:47:46;;;;;;;1999.90;999.90;;;40.10;53.10;;;;;;5055584;28;20028;-73
2022/07/17 10:50:13;;;;;;;1999.90;999.90;;;39.80;52.80;;;;;;5058406;28;20108;-73
2022/07/17 10:52:39;;;;;;;1999.90;999.90;;;39.50;52.90;;;;;;5066037;28;20028;-73
2022/07/17 10:55:06;;;;;;;1999.90;999.90;;;39.80;53.30;;;;;;5055493;28;20037;-74
2022/07/17 10:57:32;;;;;;;1999.90;999.90;;;40.20;52.90;;;;;;5055749;28;20400;-73
2022/07/17 10:59:58;;;;;;;1999.90;999.90;;;40.30;52.70;;;;;;5055504;28;20028;-73
2022/07/17 11:02:30;;;;;;;1999.90;999.90;;;40.30;52.80;;;;;;5054465;28;20025;-73
2022/07/17 11:05:09;;;;;;;1999.90;999.90;;;40.20;52.40;;;;;;5053048;28;20033;-74
2022/07/17 11:07:35;;;;;;;1999.90;999.90;;;39.80;52.30;;;;;;5055435;28;20024;-73
2022/07/17 11:10:01;;;;;;;1999.90;999.90;;;40.20;51.90;;;;;;5055072;28;20127;-73
2022/07/17 11:12:31;;;;;;;1999.90;999.90;;;40.10;52.10;;;;;;5054798;28;20495;-74
2022/07/17 11:15:02;;;;;;;1999.90;999.90;;;40.10;52.10;;;;;;5054900;28;20099;-74
2022/07/17 11:17:28;;;;;;;1999.90;999.90;;;40.10;52.10;;;;;;5054698;28;20025;-73
2022/07/17 11:19:54;;;;;;;1999.90;999.90;;;40.50;52.60;;;;;;5054981;28;20074;-74
2022/07/17 11:22:27;;;;;;;1999.90;999.90;;;40.30;51.90;;;;;;5054950;28;20021;-74
2022/07/17 11:24:53;;;;;;;1999.90;999.90;;;40.30;52.00;;;;;;5054782;28;20028;-74
2022/07/17 11:27:25;;;;;;;1999.90;999.90;;;40.00;52.60;;;;;;5054542;28;20021;-74
2022/07/17 11:29:52;;;;;;;1999.90;999.90;;;40.00;52.60;;;;;;5054951;28;20400;-74
2022/07/17 11:32:18;;;;;;;1999.90;999.90;;;40.00;52.80;;;;;;5054113;28;20037;-74
2022/07/17 11:34:43;;;;;;;1999.90;999.90;;;39.90;52.70;;;;;;5053197;28;20094;-73
2022/07/17 11:37:09;;;;;;;1999.90;999.90;;;40.10;52.70;;;;;;5054161;28;20040;-74
2022/07/17 11:39:48;;;;;;;1999.90;999.90;;;40.20;52.30;;;;;;5054557;28;20091;-74
2022/07/17 11:42:21;;;;;;;1999.90;999.90;;;40.10;52.20;;;;;;5047199;28;20024;-73
2022/07/17 11:44:50;;;;;;;1999.90;999.90;;;40.00;52.40;;;;;;5054708;28;20025;-73
2022/07/17 11:47:27;;;;;;;1999.90;999.90;;;40.00;52.40;;;;;;5054573;28;20024;-74
2022/07/17 11:50:05;;;;;;;1999.90;999.90;;;40.00;52.10;;;;;;5048218;28;20021;-74
2022/07/17 11:52:49;;;;;;;1999.90;999.90;;;39.70;52.40;;;;;;5065989;28;20458;-74
2022/07/17 11:55:15;;;;;;;1999.90;999.90;;;39.40;52.60;;;;;;5054230;28;20029;-74
2022/07/17 11:57:46;;;;;;;1999.90;999.90;;;39.10;52.80;;;;;;5054697;28;20024;-74
2022/07/17 12:00:14;;;;;;;1999.90;999.90;;;39.00;52.20;;;;;;5053951;28;20032;-73